sensor_id;sensor_type;location;lat;lon;timestamp;P1;durP1;ratioP1;P2;durP2;ratioP2
11078;SDS011;5592;49.234;7.268;2023-06-22T00:00:27;19.97;;;11.60;;
11078;SDS011;5592;49.234;7.268;2023-06-22T00:02:52;13.83;;;12.30;;
11078;SDS011;5592;49.234;7.268;2023-06-22T00:05:18;13.37;;;11.80;;
11078;SDS011;5592;49.234;7.268;2023-06-22T00:07:43;12.93;;;11.33;;
11078;SDS011;5592;49.234;7.268;2023-06-22T00:10:09;15.73;;;13.23;;
11078;SDS011;5592;49.234;7.268;2023-06-22T00:12:35;18.13;;;13.03;;
11078;SDS011;5592;49.234;7.268;2023-06-22T00:15:00;15.13;;;11.53;;
11078;SDS011;5592;49.234;7.268;2023-06-22T00:17:26;16.07;;;12.60;;
11078;SDS011;5592;49.234;7.268;2023-06-22T00:19:51;17.60;;;13.63;;
11078;SDS011;5592;49.234;7.268;2023-06-22T00:22:18;17.40;;;12.53;;
11078;SDS011;5592;49.234;7.268;2023-06-22T00:24:53;13.23;;;11.80;;
11078;SDS011;5592;49.234;7.268;2023-06-22T00:27:19;13.27;;;11.80;;
11078;SDS011;5592;49.234;7.268;2023-06-22T00:29:45;12.93;;;11.37;;
11078;SDS011;5592;49.234;7.268;2023-06-22T00:32:10;13.10;;;11.33;;
11078;SDS011;5592;49.234;7.268;2023-06-22T00:34:36;12.73;;;11.00;;
11078;SDS011;5592;49.234;7.268;2023-06-22T00:37:07;14.50;;;12.17;;
11078;SDS011;5592;49.234;7.268;2023-06-22T00:39:34;13.00;;;11.60;;
11078;SDS011;5592;49.234;7.268;2023-06-22T00:42:00;14.57;;;11.10;;
11078;SDS011;5592;49.234;7.268;2023-06-22T00:44:26;17.00;;;12.67;;
11078;SDS011;5592;49.234;7.268;2023-06-22T00:46:52;14.33;;;12.30;;
11078;SDS011;5592;49.234;7.268;2023-06-22T00:49:18;21.33;;;13.97;;
11078;SDS011;5592;49.234;7.268;2023-06-22T00:51:43;20.03;;;12.43;;
11078;SDS011;5592;49.234;7.268;2023-06-22T00:54:11;13.53;;;12.10;;
11078;SDS011;5592;49.234;7.268;2023-06-22T00:56:40;12.57;;;10.53;;
11078;SDS011;5592;49.234;7.268;2023-06-22T00:59:06;14.23;;;11.60;;
11078;SDS011;5592;49.234;7.268;2023-06-22T01:01:32;11.30;;;10.20;;
11078;SDS011;5592;49.234;7.268;2023-06-22T01:03:59;14.30;;;11.20;;
11078;SDS011;5592;49.234;7.268;2023-06-22T01:06:29;12.57;;;11.27;;
11078;SDS011;5592;49.234;7.268;2023-06-22T01:09:15;17.70;;;12.00;;
11078;SDS011;5592;49.234;7.268;2023-06-22T01:11:45;15.60;;;13.50;;
11078;SDS011;5592;49.234;7.268;2023-06-22T01:14:24;13.47;;;11.63;;
11078;SDS011;5592;49.234;7.268;2023-06-22T01:17:13;18.73;;;13.67;;
11078;SDS011;5592;49.234;7.268;2023-06-22T01:19:51;16.47;;;14.17;;
11078;SDS011;5592;49.234;7.268;2023-06-22T01:22:22;15.43;;;12.97;;
11078;SDS011;5592;49.234;7.268;2023-06-22T01:27:28;20.60;;;15.33;;
11078;SDS011;5592;49.234;7.268;2023-06-22T01:30:17;17.80;;;14.47;;
11078;SDS011;5592;49.234;7.268;2023-06-22T01:32:44;19.80;;;15.13;;
11078;SDS011;5592;49.234;7.268;2023-06-22T01:35:10;21.80;;;14.60;;
11078;SDS011;5592;49.234;7.268;2023-06-22T01:37:38;19.83;;;14.30;;
11078;SDS011;5592;49.234;7.268;2023-06-22T01:40:04;15.03;;;13.47;;
11078;SDS011;5592;49.234;7.268;2023-06-22T01:42:33;19.40;;;14.73;;
11078;SDS011;5592;49.234;7.268;2023-06-22T01:45:00;18.00;;;13.20;;
11078;SDS011;5592;49.234;7.268;2023-06-22T01:47:26;18.70;;;14.60;;
11078;SDS011;5592;49.234;7.268;2023-06-22T01:49:52;15.57;;;13.80;;
11078;SDS011;5592;49.234;7.268;2023-06-22T01:52:18;15.23;;;12.80;;
11078;SDS011;5592;49.234;7.268;2023-06-22T01:54:46;18.30;;;12.80;;
11078;SDS011;5592;49.234;7.268;2023-06-22T01:57:12;25.77;;;16.67;;
11078;SDS011;5592;49.234;7.268;2023-06-22T02:02:06;16.63;;;13.60;;
11078;SDS011;5592;49.234;7.268;2023-06-22T02:04:41;31.23;;;15.53;;
11078;SDS011;5592;49.234;7.268;2023-06-22T02:07:13;18.20;;;15.33;;
11078;SDS011;5592;49.234;7.268;2023-06-22T02:09:42;22.10;;;14.57;;
11078;SDS011;5592;49.234;7.268;2023-06-22T02:12:13;17.43;;;14.07;;
11078;SDS011;5592;49.234;7.268;2023-06-22T02:14:43;16.63;;;14.10;;
11078;SDS011;5592;49.234;7.268;2023-06-22T02:17:11;15.97;;;14.27;;
11078;SDS011;5592;49.234;7.268;2023-06-22T02:19:38;19.73;;;15.47;;
11078;SDS011;5592;49.234;7.268;2023-06-22T02:22:05;17.67;;;14.80;;
11078;SDS011;5592;49.234;7.268;2023-06-22T02:24:31;17.17;;;14.70;;
11078;SDS011;5592;49.234;7.268;2023-06-22T02:26:58;22.50;;;16.20;;
11078;SDS011;5592;49.234;7.268;2023-06-22T02:29:24;21.53;;;15.73;;
11078;SDS011;5592;49.234;7.268;2023-06-22T02:31:51;28.30;;;15.33;;
11078;SDS011;5592;49.234;7.268;2023-06-22T02:34:17;27.17;;;15.20;;
11078;SDS011;5592;49.234;7.268;2023-06-22T02:36:46;21.20;;;16.47;;
11078;SDS011;5592;49.234;7.268;2023-06-22T02:39:19;22.47;;;15.97;;
11078;SDS011;5592;49.234;7.268;2023-06-22T02:41:47;21.80;;;16.17;;
11078;SDS011;5592;49.234;7.268;2023-06-22T02:44:13;25.50;;;16.27;;
11078;SDS011;5592;49.234;7.268;2023-06-22T02:46:39;28.63;;;17.50;;
11078;SDS011;5592;49.234;7.268;2023-06-22T02:49:05;23.57;;;19.07;;
11078;SDS011;5592;49.234;7.268;2023-06-22T02:51:32;29.17;;;19.83;;
11078;SDS011;5592;49.234;7.268;2023-06-22T02:53:59;26.30;;;18.83;;
11078;SDS011;5592;49.234;7.268;2023-06-22T02:56:25;32.77;;;22.73;;
11078;SDS011;5592;49.234;7.268;2023-06-22T02:58:51;28.67;;;20.33;;
11078;SDS011;5592;49.234;7.268;2023-06-22T03:01:17;27.00;;;21.00;;
11078;SDS011;5592;49.234;7.268;2023-06-22T03:03:49;29.87;;;20.30;;
11078;SDS011;5592;49.234;7.268;2023-06-22T03:06:15;27.77;;;20.10;;
11078;SDS011;5592;49.234;7.268;2023-06-22T03:08:40;22.87;;;18.60;;
11078;SDS011;5592;49.234;7.268;2023-06-22T03:11:06;26.80;;;17.47;;
11078;SDS011;5592;49.234;7.268;2023-06-22T03:13:32;23.97;;;17.37;;
11078;SDS011;5592;49.234;7.268;2023-06-22T03:15:58;25.80;;;21.00;;
11078;SDS011;5592;49.234;7.268;2023-06-22T03:18:24;23.07;;;17.80;;
11078;SDS011;5592;49.234;7.268;2023-06-22T03:20:49;23.80;;;18.70;;
11078;SDS011;5592;49.234;7.268;2023-06-22T03:23:15;23.03;;;19.23;;
11078;SDS011;5592;49.234;7.268;2023-06-22T03:25:41;25.50;;;20.30;;
11078;SDS011;5592;49.234;7.268;2023-06-22T03:28:09;24.60;;;18.50;;
11078;SDS011;5592;49.234;7.268;2023-06-22T03:30:35;27.90;;;18.83;;
11078;SDS011;5592;49.234;7.268;2023-06-22T03:33:00;25.27;;;18.10;;
11078;SDS011;5592;49.234;7.268;2023-06-22T03:35:26;25.17;;;17.93;;
11078;SDS011;5592;49.234;7.268;2023-06-22T03:37:52;26.20;;;18.73;;
11078;SDS011;5592;49.234;7.268;2023-06-22T03:40:17;23.80;;;18.70;;
11078;SDS011;5592;49.234;7.268;2023-06-22T03:42:43;26.10;;;19.57;;
11078;SDS011;5592;49.234;7.268;2023-06-22T03:45:09;25.23;;;18.67;;
11078;SDS011;5592;49.234;7.268;2023-06-22T03:47:35;26.20;;;19.63;;
11078;SDS011;5592;49.234;7.268;2023-06-22T03:50:01;26.27;;;21.00;;
11078;SDS011;5592;49.234;7.268;2023-06-22T03:52:28;24.60;;;18.27;;
11078;SDS011;5592;49.234;7.268;2023-06-22T03:54:54;26.40;;;20.30;;
11078;SDS011;5592;49.234;7.268;2023-06-22T03:57:20;25.93;;;19.33;;
11078;SDS011;5592;49.234;7.268;2023-06-22T03:59:46;26.53;;;19.70;;
11078;SDS011;5592;49.234;7.268;2023-06-22T04:02:11;26.13;;;19.97;;
11078;SDS011;5592;49.234;7.268;2023-06-22T04:04:37;30.80;;;21.73;;
11078;SDS011;5592;49.234;7.268;2023-06-22T04:07:04;32.93;;;23.57;;
11078;SDS011;5592;49.234;7.268;2023-06-22T04:09:30;41.23;;;23.73;;
11078;SDS011;5592;49.234;7.268;2023-06-22T04:11:55;36.87;;;22.13;;
11078;SDS011;5592;49.234;7.268;2023-06-22T04:14:21;29.43;;;20.90;;
11078;SDS011;5592;49.234;7.268;2023-06-22T04:16:47;37.33;;;21.43;;
11078;SDS011;5592;49.234;7.268;2023-06-22T04:19:13;32.80;;;21.37;;
11078;SDS011;5592;49.234;7.268;2023-06-22T04:21:42;32.20;;;20.33;;
11078;SDS011;5592;49.234;7.268;2023-06-22T04:24:09;24.60;;;18.87;;
11078;SDS011;5592;49.234;7.268;2023-06-22T04:26:35;24.50;;;19.83;;
11078;SDS011;5592;49.234;7.268;2023-06-22T04:29:02;23.90;;;19.80;;
11078;SDS011;5592;49.234;7.268;2023-06-22T04:31:30;18.83;;;16.77;;
11078;SDS011;5592;49.234;7.268;2023-06-22T04:33:57;29.03;;;20.83;;
11078;SDS011;5592;49.234;7.268;2023-06-22T04:36:30;25.30;;;19.60;;
11078;SDS011;5592;49.234;7.268;2023-06-22T04:39:02;27.37;;;17.93;;
11078;SDS011;5592;49.234;7.268;2023-06-22T04:41:32;22.13;;;18.07;;
11078;SDS011;5592;49.234;7.268;2023-06-22T04:44:07;23.70;;;18.10;;
11078;SDS011;5592;49.234;7.268;2023-06-22T04:46:48;18.40;;;15.63;;
11078;SDS011;5592;49.234;7.268;2023-06-22T04:49:20;15.87;;;14.37;;
11078;SDS011;5592;49.234;7.268;2023-06-22T04:51:47;15.63;;;13.90;;
11078;SDS011;5592;49.234;7.268;2023-06-22T04:54:12;16.33;;;12.33;;
11078;SDS011;5592;49.234;7.268;2023-06-22T04:56:38;12.43;;;11.00;;
11078;SDS011;5592;49.234;7.268;2023-06-22T04:59:05;11.17;;;10.00;;
11078;SDS011;5592;49.234;7.268;2023-06-22T05:01:31;11.80;;;9.70;;
11078;SDS011;5592;49.234;7.268;2023-06-22T05:03:57;17.20;;;10.00;;
11078;SDS011;5592;49.234;7.268;2023-06-22T05:06:26;11.80;;;8.30;;
11078;SDS011;5592;49.234;7.268;2023-06-22T05:08:55;11.50;;;8.43;;
11078;SDS011;5592;49.234;7.268;2023-06-22T05:11:29;9.63;;;8.33;;
11078;SDS011;5592;49.234;7.268;2023-06-22T05:13:54;10.43;;;8.10;;
11078;SDS011;5592;49.234;7.268;2023-06-22T05:16:20;9.80;;;7.60;;
11078;SDS011;5592;49.234;7.268;2023-06-22T05:18:51;12.37;;;7.30;;
11078;SDS011;5592;49.234;7.268;2023-06-22T05:21:18;8.00;;;7.23;;
11078;SDS011;5592;49.234;7.268;2023-06-22T05:23:44;8.43;;;7.50;;
11078;SDS011;5592;49.234;7.268;2023-06-22T05:26:09;8.67;;;7.43;;
11078;SDS011;5592;49.234;7.268;2023-06-22T05:28:35;8.90;;;7.67;;
11078;SDS011;5592;49.234;7.268;2023-06-22T05:31:00;9.53;;;7.30;;
11078;SDS011;5592;49.234;7.268;2023-06-22T05:33:26;8.33;;;7.53;;
11078;SDS011;5592;49.234;7.268;2023-06-22T05:35:52;10.80;;;7.70;;
11078;SDS011;5592;49.234;7.268;2023-06-22T05:38:20;10.00;;;7.93;;
11078;SDS011;5592;49.234;7.268;2023-06-22T05:40:46;8.73;;;7.93;;
11078;SDS011;5592;49.234;7.268;2023-06-22T05:43:12;12.40;;;7.87;;
11078;SDS011;5592;49.234;7.268;2023-06-22T05:45:37;11.57;;;8.20;;
11078;SDS011;5592;49.234;7.268;2023-06-22T05:48:03;8.60;;;7.80;;
11078;SDS011;5592;49.234;7.268;2023-06-22T05:50:29;8.83;;;7.50;;
11078;SDS011;5592;49.234;7.268;2023-06-22T05:52:54;10.67;;;7.57;;
11078;SDS011;5592;49.234;7.268;2023-06-22T05:55:20;10.33;;;8.67;;
11078;SDS011;5592;49.234;7.268;2023-06-22T05:57:46;7.60;;;6.80;;
11078;SDS011;5592;49.234;7.268;2023-06-22T06:00:11;12.40;;;7.40;;
11078;SDS011;5592;49.234;7.268;2023-06-22T06:02:38;11.70;;;7.67;;
11078;SDS011;5592;49.234;7.268;2023-06-22T06:05:09;9.30;;;7.40;;
11078;SDS011;5592;49.234;7.268;2023-06-22T06:07:35;9.60;;;7.93;;
11078;SDS011;5592;49.234;7.268;2023-06-22T06:10:02;10.87;;;8.10;;
11078;SDS011;5592;49.234;7.268;2023-06-22T06:12:30;8.50;;;7.37;;
11078;SDS011;5592;49.234;7.268;2023-06-22T06:14:55;9.13;;;7.50;;
11078;SDS011;5592;49.234;7.268;2023-06-22T06:17:21;10.83;;;7.00;;
11078;SDS011;5592;49.234;7.268;2023-06-22T06:19:47;7.83;;;6.57;;
11078;SDS011;5592;49.234;7.268;2023-06-22T06:22:13;13.30;;;8.57;;
11078;SDS011;5592;49.234;7.268;2023-06-22T06:24:38;9.23;;;8.43;;
11078;SDS011;5592;49.234;7.268;2023-06-22T06:27:04;8.63;;;7.83;;
11078;SDS011;5592;49.234;7.268;2023-06-22T06:29:30;7.63;;;6.93;;
11078;SDS011;5592;49.234;7.268;2023-06-22T06:31:56;12.07;;;6.93;;
11078;SDS011;5592;49.234;7.268;2023-06-22T06:34:22;9.97;;;7.77;;
11078;SDS011;5592;49.234;7.268;2023-06-22T06:36:47;8.50;;;6.90;;
11078;SDS011;5592;49.234;7.268;2023-06-22T06:39:13;10.53;;;7.30;;
11078;SDS011;5592;49.234;7.268;2023-06-22T06:41:38;8.00;;;6.57;;
11078;SDS011;5592;49.234;7.268;2023-06-22T06:44:04;8.90;;;6.95;;
11078;SDS011;5592;49.234;7.268;2023-06-22T06:46:31;9.57;;;7.45;;
11078;SDS011;5592;49.234;7.268;2023-06-22T06:48:57;7.40;;;6.70;;
11078;SDS011;5592;49.234;7.268;2023-06-22T06:51:22;7.00;;;6.40;;
11078;SDS011;5592;49.234;7.268;2023-06-22T06:53:48;8.00;;;7.20;;
11078;SDS011;5592;49.234;7.268;2023-06-22T06:56:14;6.80;;;6.20;;
11078;SDS011;5592;49.234;7.268;2023-06-22T06:58:41;11.27;;;6.75;;
11078;SDS011;5592;49.234;7.268;2023-06-22T07:01:10;6.90;;;6.30;;
11078;SDS011;5592;49.234;7.268;2023-06-22T07:03:39;7.60;;;6.40;;
11078;SDS011;5592;49.234;7.268;2023-06-22T07:06:05;9.68;;;7.70;;
11078;SDS011;5592;49.234;7.268;2023-06-22T07:08:30;8.15;;;6.78;;
11078;SDS011;5592;49.234;7.268;2023-06-22T07:10:56;7.75;;;5.93;;
11078;SDS011;5592;49.234;7.268;2023-06-22T07:13:22;9.18;;;6.43;;
11078;SDS011;5592;49.234;7.268;2023-06-22T07:15:47;8.77;;;6.47;;
11078;SDS011;5592;49.234;7.268;2023-06-22T07:18:13;7.72;;;7.03;;
11078;SDS011;5592;49.234;7.268;2023-06-22T07:20:38;6.68;;;6.07;;
11078;SDS011;5592;49.234;7.268;2023-06-22T07:23:04;6.80;;;6.13;;
11078;SDS011;5592;49.234;7.268;2023-06-22T07:25:30;9.77;;;6.20;;
11078;SDS011;5592;49.234;7.268;2023-06-22T07:27:57;7.50;;;6.90;;
11078;SDS011;5592;49.234;7.268;2023-06-22T07:30:27;6.90;;;6.30;;
11078;SDS011;5592;49.234;7.268;2023-06-22T07:32:56;7.32;;;6.63;;
11078;SDS011;5592;49.234;7.268;2023-06-22T07:35:23;7.70;;;7.00;;
11078;SDS011;5592;49.234;7.268;2023-06-22T07:37:49;7.45;;;6.15;;
11078;SDS011;5592;49.234;7.268;2023-06-22T07:40:14;8.27;;;6.32;;
11078;SDS011;5592;49.234;7.268;2023-06-22T07:42:40;7.40;;;6.47;;
11078;SDS011;5592;49.234;7.268;2023-06-22T07:45:06;8.05;;;6.82;;
11078;SDS011;5592;49.234;7.268;2023-06-22T07:47:34;8.18;;;6.50;;
11078;SDS011;5592;49.234;7.268;2023-06-22T07:50:00;9.45;;;6.65;;
11078;SDS011;5592;49.234;7.268;2023-06-22T07:55:02;12.40;;;7.27;;
11078;SDS011;5592;49.234;7.268;2023-06-22T07:57:28;7.20;;;6.50;;
11078;SDS011;5592;49.234;7.268;2023-06-22T08:00:01;12.35;;;6.93;;
11078;SDS011;5592;49.234;7.268;2023-06-22T08:02:29;8.20;;;6.63;;
11078;SDS011;5592;49.234;7.268;2023-06-22T08:04:56;6.80;;;6.20;;
11078;SDS011;5592;49.234;7.268;2023-06-22T08:07:23;8.10;;;7.00;;
11078;SDS011;5592;49.234;7.268;2023-06-22T08:09:52;7.27;;;5.83;;
11078;SDS011;5592;49.234;7.268;2023-06-22T08:12:18;8.47;;;7.30;;
11078;SDS011;5592;49.234;7.268;2023-06-22T08:14:46;7.47;;;6.70;;
11078;SDS011;5592;49.234;7.268;2023-06-22T08:17:14;8.00;;;6.70;;
11078;SDS011;5592;49.234;7.268;2023-06-22T08:19:43;8.13;;;7.27;;
11078;SDS011;5592;49.234;7.268;2023-06-22T08:22:12;7.40;;;6.23;;
11078;SDS011;5592;49.234;7.268;2023-06-22T08:24:37;12.33;;;7.00;;
11078;SDS011;5592;49.234;7.268;2023-06-22T08:27:06;8.73;;;7.00;;
11078;SDS011;5592;49.234;7.268;2023-06-22T08:29:34;7.73;;;6.57;;
11078;SDS011;5592;49.234;7.268;2023-06-22T08:32:00;8.40;;;6.70;;
11078;SDS011;5592;49.234;7.268;2023-06-22T08:34:30;9.73;;;6.67;;
11078;SDS011;5592;49.234;7.268;2023-06-22T08:36:57;7.47;;;5.83;;
11078;SDS011;5592;49.234;7.268;2023-06-22T08:39:27;8.70;;;6.73;;
11078;SDS011;5592;49.234;7.268;2023-06-22T08:42:00;6.60;;;5.90;;
11078;SDS011;5592;49.234;7.268;2023-06-22T08:44:29;5.80;;;5.20;;
11078;SDS011;5592;49.234;7.268;2023-06-22T08:46:56;8.00;;;5.70;;
11078;SDS011;5592;49.234;7.268;2023-06-22T08:49:23;7.40;;;6.60;;
11078;SDS011;5592;49.234;7.268;2023-06-22T08:51:48;8.33;;;6.47;;
11078;SDS011;5592;49.234;7.268;2023-06-22T08:54:14;5.87;;;5.37;;
11078;SDS011;5592;49.234;7.268;2023-06-22T08:56:40;10.63;;;4.90;;
11078;SDS011;5592;49.234;7.268;2023-06-22T08:59:09;6.27;;;5.67;;
11078;SDS011;5592;49.234;7.268;2023-06-22T09:01:34;10.40;;;5.30;;
11078;SDS011;5592;49.234;7.268;2023-06-22T09:04:00;6.90;;;6.17;;
11078;SDS011;5592;49.234;7.268;2023-06-22T09:06:25;7.13;;;4.90;;
11078;SDS011;5592;49.234;7.268;2023-06-22T09:08:56;10.03;;;6.13;;
11078;SDS011;5592;49.234;7.268;2023-06-22T09:11:25;10.37;;;6.30;;
11078;SDS011;5592;49.234;7.268;2023-06-22T09:13:51;9.20;;;6.10;;
11078;SDS011;5592;49.234;7.268;2023-06-22T09:16:18;8.30;;;5.60;;
11078;SDS011;5592;49.234;7.268;2023-06-22T09:18:48;9.07;;;5.93;;
11078;SDS011;5592;49.234;7.268;2023-06-22T09:21:14;8.20;;;6.20;;
11078;SDS011;5592;49.234;7.268;2023-06-22T09:23:39;6.30;;;5.77;;
11078;SDS011;5592;49.234;7.268;2023-06-22T09:26:05;6.33;;;5.50;;
11078;SDS011;5592;49.234;7.268;2023-06-22T09:28:31;7.03;;;6.30;;
11078;SDS011;5592;49.234;7.268;2023-06-22T09:30:56;6.70;;;5.57;;
11078;SDS011;5592;49.234;7.268;2023-06-22T09:33:23;6.70;;;5.43;;
11078;SDS011;5592;49.234;7.268;2023-06-22T09:35:50;7.73;;;5.57;;
11078;SDS011;5592;49.234;7.268;2023-06-22T09:38:16;10.20;;;7.40;;
11078;SDS011;5592;49.234;7.268;2023-06-22T09:40:41;6.68;;;5.72;;
11078;SDS011;5592;49.234;7.268;2023-06-22T09:43:08;6.85;;;5.88;;
11078;SDS011;5592;49.234;7.268;2023-06-22T09:45:34;8.93;;;6.07;;
11078;SDS011;5592;49.234;7.268;2023-06-22T09:48:01;8.82;;;5.63;;
11078;SDS011;5592;49.234;7.268;2023-06-22T09:50:26;15.25;;;6.60;;
11078;SDS011;5592;49.234;7.268;2023-06-22T09:52:52;7.60;;;5.65;;
11078;SDS011;5592;49.234;7.268;2023-06-22T09:55:20;7.65;;;5.03;;
11078;SDS011;5592;49.234;7.268;2023-06-22T09:57:46;9.77;;;6.05;;
11078;SDS011;5592;49.234;7.268;2023-06-22T10:00:12;7.80;;;6.20;;
11078;SDS011;5592;49.234;7.268;2023-06-22T10:02:39;8.25;;;5.97;;
11078;SDS011;5592;49.234;7.268;2023-06-22T10:05:05;9.13;;;6.68;;
11078;SDS011;5592;49.234;7.268;2023-06-22T10:07:31;9.63;;;6.07;;
11078;SDS011;5592;49.234;7.268;2023-06-22T10:09:56;8.93;;;5.78;;
11078;SDS011;5592;49.234;7.268;2023-06-22T10:12:22;7.47;;;5.68;;
11078;SDS011;5592;49.234;7.268;2023-06-22T10:14:47;19.73;;;6.22;;
11078;SDS011;5592;49.234;7.268;2023-06-22T10:17:13;7.32;;;6.03;;
11078;SDS011;5592;49.234;7.268;2023-06-22T10:19:40;9.30;;;6.57;;
11078;SDS011;5592;49.234;7.268;2023-06-22T10:22:06;8.13;;;5.53;;
11078;SDS011;5592;49.234;7.268;2023-06-22T10:24:32;8.70;;;5.72;;
11078;SDS011;5592;49.234;7.268;2023-06-22T10:26:57;8.13;;;5.18;;
11078;SDS011;5592;49.234;7.268;2023-06-22T10:29:23;8.15;;;6.32;;
11078;SDS011;5592;49.234;7.268;2023-06-22T10:31:48;7.60;;;5.60;;
11078;SDS011;5592;49.234;7.268;2023-06-22T10:34:14;8.80;;;5.50;;
11078;SDS011;5592;49.234;7.268;2023-06-22T10:36:41;10.82;;;5.45;;
11078;SDS011;5592;49.234;7.268;2023-06-22T10:39:06;11.35;;;5.85;;
11078;SDS011;5592;49.234;7.268;2023-06-22T10:41:32;10.30;;;5.68;;
11078;SDS011;5592;49.234;7.268;2023-06-22T10:43:58;10.40;;;5.82;;
11078;SDS011;5592;49.234;7.268;2023-06-22T10:46:24;9.18;;;5.97;;
11078;SDS011;5592;49.234;7.268;2023-06-22T10:48:53;9.48;;;5.68;;
11078;SDS011;5592;49.234;7.268;2023-06-22T10:51:23;11.82;;;5.72;;
11078;SDS011;5592;49.234;7.268;2023-06-22T10:53:50;9.93;;;6.00;;
11078;SDS011;5592;49.234;7.268;2023-06-22T10:56:17;15.95;;;5.30;;
11078;SDS011;5592;49.234;7.268;2023-06-22T10:58:44;9.80;;;5.72;;
11078;SDS011;5592;49.234;7.268;2023-06-22T11:01:10;14.07;;;6.55;;
11078;SDS011;5592;49.234;7.268;2023-06-22T11:03:35;12.00;;;5.60;;
11078;SDS011;5592;49.234;7.268;2023-06-22T11:06:01;10.02;;;6.45;;
11078;SDS011;5592;49.234;7.268;2023-06-22T11:08:26;8.15;;;5.53;;
11078;SDS011;5592;49.234;7.268;2023-06-22T11:10:52;9.45;;;5.53;;
11078;SDS011;5592;49.234;7.268;2023-06-22T11:13:17;14.88;;;7.35;;
11078;SDS011;5592;49.234;7.268;2023-06-22T11:15:43;9.35;;;5.35;;
11078;SDS011;5592;49.234;7.268;2023-06-22T11:18:09;16.13;;;6.20;;
11078;SDS011;5592;49.234;7.268;2023-06-22T11:20:34;7.80;;;6.40;;
11078;SDS011;5592;49.234;7.268;2023-06-22T11:23:03;14.20;;;6.00;;
11078;SDS011;5592;49.234;7.268;2023-06-22T11:25:30;10.73;;;6.10;;
11078;SDS011;5592;49.234;7.268;2023-06-22T11:27:56;9.33;;;5.90;;
11078;SDS011;5592;49.234;7.268;2023-06-22T11:30:21;10.17;;;5.70;;
11078;SDS011;5592;49.234;7.268;2023-06-22T11:32:48;11.30;;;5.73;;
11078;SDS011;5592;49.234;7.268;2023-06-22T11:35:13;12.53;;;5.70;;
11078;SDS011;5592;49.234;7.268;2023-06-22T11:37:39;8.97;;;5.60;;
11078;SDS011;5592;49.234;7.268;2023-06-22T11:40:04;10.40;;;6.27;;
11078;SDS011;5592;49.234;7.268;2023-06-22T11:42:33;9.40;;;5.90;;
11078;SDS011;5592;49.234;7.268;2023-06-22T11:44:59;8.73;;;5.47;;
11078;SDS011;5592;49.234;7.268;2023-06-22T11:47:25;12.00;;;5.73;;
11078;SDS011;5592;49.234;7.268;2023-06-22T11:49:50;12.87;;;6.97;;
11078;SDS011;5592;49.234;7.268;2023-06-22T11:52:16;8.90;;;5.90;;
11078;SDS011;5592;49.234;7.268;2023-06-22T11:54:42;17.30;;;6.00;;
11078;SDS011;5592;49.234;7.268;2023-06-22T11:57:08;19.87;;;6.13;;
11078;SDS011;5592;49.234;7.268;2023-06-22T11:59:34;8.73;;;5.83;;
11078;SDS011;5592;49.234;7.268;2023-06-22T12:01:59;10.20;;;6.20;;
11078;SDS011;5592;49.234;7.268;2023-06-22T12:04:25;9.20;;;6.33;;
11078;SDS011;5592;49.234;7.268;2023-06-22T12:06:50;12.53;;;6.00;;
11078;SDS011;5592;49.234;7.268;2023-06-22T12:09:16;9.43;;;6.33;;
11078;SDS011;5592;49.234;7.268;2023-06-22T12:11:41;12.40;;;7.17;;
11078;SDS011;5592;49.234;7.268;2023-06-22T12:14:07;11.40;;;6.63;;
11078;SDS011;5592;49.234;7.268;2023-06-22T12:16:33;11.60;;;6.77;;
11078;SDS011;5592;49.234;7.268;2023-06-22T12:18:58;18.10;;;6.10;;
11078;SDS011;5592;49.234;7.268;2023-06-22T12:21:24;10.90;;;6.30;;
11078;SDS011;5592;49.234;7.268;2023-06-22T12:29:01;14.20;;;6.43;;
11078;SDS011;5592;49.234;7.268;2023-06-22T12:31:27;13.33;;;7.07;;
11078;SDS011;5592;49.234;7.268;2023-06-22T12:33:52;12.70;;;6.40;;
11078;SDS011;5592;49.234;7.268;2023-06-22T12:36:18;12.87;;;6.57;;
11078;SDS011;5592;49.234;7.268;2023-06-22T12:38:43;12.30;;;5.87;;
11078;SDS011;5592;49.234;7.268;2023-06-22T12:41:09;23.00;;;5.77;;
11078;SDS011;5592;49.234;7.268;2023-06-22T12:43:34;18.80;;;6.00;;
11078;SDS011;5592;49.234;7.268;2023-06-22T12:46:00;8.80;;;5.70;;
11078;SDS011;5592;49.234;7.268;2023-06-22T12:48:26;12.17;;;6.97;;
11078;SDS011;5592;49.234;7.268;2023-06-22T12:50:52;11.40;;;6.20;;
11078;SDS011;5592;49.234;7.268;2023-06-22T12:53:18;16.30;;;6.93;;
11078;SDS011;5592;49.234;7.268;2023-06-22T12:55:44;12.13;;;6.23;;
11078;SDS011;5592;49.234;7.268;2023-06-22T12:58:09;19.70;;;6.50;;
11078;SDS011;5592;49.234;7.268;2023-06-22T13:00:35;14.50;;;5.50;;
11078;SDS011;5592;49.234;7.268;2023-06-22T13:03:01;12.70;;;5.33;;
11078;SDS011;5592;49.234;7.268;2023-06-22T13:05:26;15.97;;;5.77;;
11078;SDS011;5592;49.234;7.268;2023-06-22T13:07:52;14.10;;;5.93;;
11078;SDS011;5592;49.234;7.268;2023-06-22T13:10:18;20.63;;;5.70;;
11078;SDS011;5592;49.234;7.268;2023-06-22T13:12:43;17.63;;;6.10;;
11078;SDS011;5592;49.234;7.268;2023-06-22T13:15:09;14.93;;;5.40;;
11078;SDS011;5592;49.234;7.268;2023-06-22T13:17:34;18.53;;;4.77;;
11078;SDS011;5592;49.234;7.268;2023-06-22T13:20:00;14.30;;;5.30;;
11078;SDS011;5592;49.234;7.268;2023-06-22T13:22:33;11.43;;;4.97;;
11078;SDS011;5592;49.234;7.268;2023-06-22T13:25:05;18.53;;;5.00;;
11078;SDS011;5592;49.234;7.268;2023-06-22T13:27:31;9.67;;;4.70;;
11078;SDS011;5592;49.234;7.268;2023-06-22T13:29:56;14.30;;;5.40;;
11078;SDS011;5592;49.234;7.268;2023-06-22T13:32:22;11.50;;;5.90;;
11078;SDS011;5592;49.234;7.268;2023-06-22T13:34:48;11.97;;;4.80;;
11078;SDS011;5592;49.234;7.268;2023-06-22T13:37:13;15.27;;;6.57;;
11078;SDS011;5592;49.234;7.268;2023-06-22T13:39:39;12.83;;;5.37;;
11078;SDS011;5592;49.234;7.268;2023-06-22T13:42:05;14.13;;;5.47;;
11078;SDS011;5592;49.234;7.268;2023-06-22T13:44:31;13.73;;;5.17;;
11078;SDS011;5592;49.234;7.268;2023-06-22T13:46:56;10.60;;;4.70;;
11078;SDS011;5592;49.234;7.268;2023-06-22T13:49:22;10.23;;;5.60;;
11078;SDS011;5592;49.234;7.268;2023-06-22T13:51:48;17.73;;;5.03;;
11078;SDS011;5592;49.234;7.268;2023-06-22T13:54:14;9.70;;;5.40;;
11078;SDS011;5592;49.234;7.268;2023-06-22T13:56:40;16.20;;;5.10;;
11078;SDS011;5592;49.234;7.268;2023-06-22T13:59:05;14.13;;;4.63;;
11078;SDS011;5592;49.234;7.268;2023-06-22T14:01:34;11.40;;;4.30;;
11078;SDS011;5592;49.234;7.268;2023-06-22T14:04:00;15.63;;;4.60;;
11078;SDS011;5592;49.234;7.268;2023-06-22T14:06:28;10.67;;;3.90;;
11078;SDS011;5592;49.234;7.268;2023-06-22T14:08:54;10.03;;;3.80;;
11078;SDS011;5592;49.234;7.268;2023-06-22T14:11:19;10.30;;;3.63;;
11078;SDS011;5592;49.234;7.268;2023-06-22T14:13:45;11.67;;;4.17;;
11078;SDS011;5592;49.234;7.268;2023-06-22T14:16:11;19.53;;;4.40;;
11078;SDS011;5592;49.234;7.268;2023-06-22T14:18:37;16.83;;;4.40;;
11078;SDS011;5592;49.234;7.268;2023-06-22T14:21:02;20.97;;;4.27;;
11078;SDS011;5592;49.234;7.268;2023-06-22T14:23:31;16.90;;;3.70;;
11078;SDS011;5592;49.234;7.268;2023-06-22T14:25:57;14.40;;;4.50;;
11078;SDS011;5592;49.234;7.268;2023-06-22T14:28:22;16.10;;;4.43;;
11078;SDS011;5592;49.234;7.268;2023-06-22T14:30:48;11.20;;;3.93;;
11078;SDS011;5592;49.234;7.268;2023-06-22T14:33:13;7.63;;;3.30;;
11078;SDS011;5592;49.234;7.268;2023-06-22T14:35:39;11.60;;;3.60;;
11078;SDS011;5592;49.234;7.268;2023-06-22T14:38:04;12.57;;;3.73;;
11078;SDS011;5592;49.234;7.268;2023-06-22T14:40:31;18.80;;;3.90;;
11078;SDS011;5592;49.234;7.268;2023-06-22T14:42:57;8.37;;;3.33;;
11078;SDS011;5592;49.234;7.268;2023-06-22T14:45:23;9.67;;;3.70;;
11078;SDS011;5592;49.234;7.268;2023-06-22T14:47:48;12.40;;;3.70;;
11078;SDS011;5592;49.234;7.268;2023-06-22T14:50:14;11.33;;;3.30;;
11078;SDS011;5592;49.234;7.268;2023-06-22T14:52:40;19.43;;;4.00;;
11078;SDS011;5592;49.234;7.268;2023-06-22T14:55:06;11.57;;;3.90;;
11078;SDS011;5592;49.234;7.268;2023-06-22T14:57:32;11.30;;;3.00;;